sensor_id;sensor_type;location;lat;lon;timestamp;temperature;humidity
74416;SHT31;62850;42.428;25.618;2023-06-22T00:02:01;22.95;64.49
74416;SHT31;62850;42.428;25.618;2023-06-22T00:04:27;22.99;64.19
74416;SHT31;62850;42.428;25.618;2023-06-22T00:06:53;23.04;63.54
74416;SHT31;62850;42.428;25.618;2023-06-22T00:09:19;23.09;63.16
74416;SHT31;62850;42.428;25.618;2023-06-22T00:11:45;23.07;62.90
74416;SHT31;62850;42.428;25.618;2023-06-22T00:14:11;23.07;62.82
74416;SHT31;62850;42.428;25.618;2023-06-22T00:16:37;23.09;62.65
74416;SHT31;62850;42.428;25.618;2023-06-22T00:19:03;23.12;62.49
74416;SHT31;62850;42.428;25.618;2023-06-22T00:21:30;23.12;63.01
74416;SHT31;62850;42.428;25.618;2023-06-22T00:23:56;23.18;62.70
74416;SHT31;62850;42.428;25.618;2023-06-22T00:26:23;23.19;63.93
74416;SHT31;62850;42.428;25.618;2023-06-22T00:28:48;23.08;63.88
74416;SHT31;62850;42.428;25.618;2023-06-22T00:31:15;23.07;64.76
74416;SHT31;62850;42.428;25.618;2023-06-22T00:33:41;22.95;65.24
74416;SHT31;62850;42.428;25.618;2023-06-22T00:36:07;22.86;65.21
74416;SHT31;62850;42.428;25.618;2023-06-22T00:38:38;22.79;65.61
74416;SHT31;62850;42.428;25.618;2023-06-22T00:41:06;22.78;65.32
74416;SHT31;62850;42.428;25.618;2023-06-22T00:43:33;22.68;66.42
74416;SHT31;62850;42.428;25.618;2023-06-22T00:46:00;22.56;66.29
74416;SHT31;62850;42.428;25.618;2023-06-22T00:48:26;22.54;65.83
74416;SHT31;62850;42.428;25.618;2023-06-22T00:50:52;22.49;66.38
74416;SHT31;62850;42.428;25.618;2023-06-22T00:53:19;22.43;66.24
74416;SHT31;62850;42.428;25.618;2023-06-22T00:55:45;22.39;66.54
74416;SHT31;62850;42.428;25.618;2023-06-22T00:58:18;22.40;66.56
74416;SHT31;62850;42.428;25.618;2023-06-22T01:00:47;22.40;67.19
74416;SHT31;62850;42.428;25.618;2023-06-22T01:03:13;22.30;67.27
74416;SHT31;62850;42.428;25.618;2023-06-22T01:05:39;22.29;66.68
74416;SHT31;62850;42.428;25.618;2023-06-22T01:08:42;22.36;66.61
74416;SHT31;62850;42.428;25.618;2023-06-22T01:11:17;22.35;66.13
74416;SHT31;62850;42.428;25.618;2023-06-22T01:14:10;22.33;66.32
74416;SHT31;62850;42.428;25.618;2023-06-22T01:16:41;22.32;66.73
74416;SHT31;62850;42.428;25.618;2023-06-22T01:19:48;22.30;66.41
74416;SHT31;62850;42.428;25.618;2023-06-22T01:22:25;22.32;67.00
74416;SHT31;62850;42.428;25.618;2023-06-22T01:25:10;22.32;66.81
74416;SHT31;62850;42.428;25.618;2023-06-22T01:30:16;22.30;65.55
74416;SHT31;62850;42.428;25.618;2023-06-22T01:32:42;22.30;66.44
74416;SHT31;62850;42.428;25.618;2023-06-22T01:35:10;22.29;66.14
74416;SHT31;62850;42.428;25.618;2023-06-22T01:37:38;22.23;66.78
74416;SHT31;62850;42.428;25.618;2023-06-22T01:40:05;22.17;67.13
74416;SHT31;62850;42.428;25.618;2023-06-22T01:42:32;22.12;67.47
74416;SHT31;62850;42.428;25.618;2023-06-22T01:44:58;21.95;67.85
74416;SHT31;62850;42.428;25.618;2023-06-22T01:47:25;21.83;68.40
74416;SHT31;62850;42.428;25.618;2023-06-22T01:49:51;21.78;68.51
74416;SHT31;62850;42.428;25.618;2023-06-22T01:52:18;21.74;68.81
74416;SHT31;62850;42.428;25.618;2023-06-22T01:54:47;21.65;69.27
74416;SHT31;62850;42.428;25.618;2023-06-22T01:57:13;21.55;69.68
74416;SHT31;62850;42.428;25.618;2023-06-22T01:59:51;21.50;69.95
74416;SHT31;62850;42.428;25.618;2023-06-22T02:02:20;21.50;69.94
74416;SHT31;62850;42.428;25.618;2023-06-22T02:04:57;21.52;68.80
74416;SHT31;62850;42.428;25.618;2023-06-22T02:07:29;21.55;69.63
74416;SHT31;62850;42.428;25.618;2023-06-22T02:09:58;21.59;68.00
74416;SHT31;62850;42.428;25.618;2023-06-22T02:12:26;21.65;67.27
74416;SHT31;62850;42.428;25.618;2023-06-22T02:14:53;21.72;67.05
74416;SHT31;62850;42.428;25.618;2023-06-22T02:17:19;21.78;67.05
74416;SHT31;62850;42.428;25.618;2023-06-22T02:19:45;21.81;66.64
74416;SHT31;62850;42.428;25.618;2023-06-22T02:22:11;21.83;66.29
74416;SHT31;62850;42.428;25.618;2023-06-22T02:24:39;21.90;66.17
74416;SHT31;62850;42.428;25.618;2023-06-22T02:27:05;21.95;65.87
74416;SHT31;62850;42.428;25.618;2023-06-22T02:29:32;21.99;66.58
74416;SHT31;62850;42.428;25.618;2023-06-22T02:31:58;21.92;67.45
74416;SHT31;62850;42.428;25.618;2023-06-22T02:34:24;21.74;68.27
74416;SHT31;62850;42.428;25.618;2023-06-22T02:36:51;21.77;68.46
74416;SHT31;62850;42.428;25.618;2023-06-22T02:39:20;21.75;68.09
74416;SHT31;62850;42.428;25.618;2023-06-22T02:41:52;21.75;66.86
74416;SHT31;62850;42.428;25.618;2023-06-22T02:44:19;21.79;67.44
74416;SHT31;62850;42.428;25.618;2023-06-22T02:46:45;21.90;67.89
74416;SHT31;62850;42.428;25.618;2023-06-22T02:49:11;21.92;67.89
74416;SHT31;62850;42.428;25.618;2023-06-22T02:51:44;21.96;67.99
74416;SHT31;62850;42.428;25.618;2023-06-22T02:54:10;21.98;67.37
74416;SHT31;62850;42.428;25.618;2023-06-22T02:56:37;21.95;67.46
74416;SHT31;62850;42.428;25.618;2023-06-22T02:59:07;21.95;67.59
74416;SHT31;62850;42.428;25.618;2023-06-22T03:01:32;21.96;66.85
74416;SHT31;62850;42.428;25.618;2023-06-22T03:04:03;21.98;66.52
74416;SHT31;62850;42.428;25.618;2023-06-22T03:06:29;22.00;66.99
74416;SHT31;62850;42.428;25.618;2023-06-22T03:09:00;21.99;66.98
74416;SHT31;62850;42.428;25.618;2023-06-22T03:11:26;21.96;68.27
74416;SHT31;62850;42.428;25.618;2023-06-22T03:13:52;21.95;67.83
74416;SHT31;62850;42.428;25.618;2023-06-22T03:16:19;21.95;68.28
74416;SHT31;62850;42.428;25.618;2023-06-22T03:18:45;21.95;67.81
74416;SHT31;62850;42.428;25.618;2023-06-22T03:21:10;21.98;68.64
74416;SHT31;62850;42.428;25.618;2023-06-22T03:23:36;22.00;68.08
74416;SHT31;62850;42.428;25.618;2023-06-22T03:26:03;22.02;68.08
74416;SHT31;62850;42.428;25.618;2023-06-22T03:28:29;22.05;67.61
74416;SHT31;62850;42.428;25.618;2023-06-22T03:30:57;22.08;67.67
74416;SHT31;62850;42.428;25.618;2023-06-22T03:33:23;22.09;67.56
74416;SHT31;62850;42.428;25.618;2023-06-22T03:35:49;22.10;66.94
74416;SHT31;62850;42.428;25.618;2023-06-22T03:38:17;22.12;66.93
74416;SHT31;62850;42.428;25.618;2023-06-22T03:40:43;22.13;66.95
74416;SHT31;62850;42.428;25.618;2023-06-22T03:43:09;22.19;67.46
74416;SHT31;62850;42.428;25.618;2023-06-22T03:45:35;22.19;66.45
74416;SHT31;62850;42.428;25.618;2023-06-22T03:48:03;22.29;67.05
74416;SHT31;62850;42.428;25.618;2023-06-22T03:50:29;22.23;66.13
74416;SHT31;62850;42.428;25.618;2023-06-22T03:52:55;22.17;65.95
74416;SHT31;62850;42.428;25.618;2023-06-22T03:55:21;22.21;66.11
74416;SHT31;62850;42.428;25.618;2023-06-22T03:57:47;22.30;66.31
74416;SHT31;62850;42.428;25.618;2023-06-22T04:00:13;22.30;66.62
74416;SHT31;62850;42.428;25.618;2023-06-22T04:02:40;22.28;66.47
74416;SHT31;62850;42.428;25.618;2023-06-22T04:05:08;22.35;66.86
74416;SHT31;62850;42.428;25.618;2023-06-22T04:07:33;22.43;66.64
74416;SHT31;62850;42.428;25.618;2023-06-22T04:10:00;22.41;67.22
74416;SHT31;62850;42.428;25.618;2023-06-22T04:12:26;22.40;67.19
74416;SHT31;62850;42.428;25.618;2023-06-22T04:14:52;22.40;68.05
74416;SHT31;62850;42.428;25.618;2023-06-22T04:17:18;22.36;68.60
74416;SHT31;62850;42.428;25.618;2023-06-22T04:19:44;22.39;68.46
74416;SHT31;62850;42.428;25.618;2023-06-22T04:22:10;22.33;69.32
74416;SHT31;62850;42.428;25.618;2023-06-22T04:24:37;22.33;68.96
74416;SHT31;62850;42.428;25.618;2023-06-22T04:27:03;22.16;70.17
74416;SHT31;62850;42.428;25.618;2023-06-22T04:29:30;22.26;69.64
74416;SHT31;62850;42.428;25.618;2023-06-22T04:31:56;22.17;69.80
74416;SHT31;62850;42.428;25.618;2023-06-22T04:34:24;22.23;69.57
74416;SHT31;62850;42.428;25.618;2023-06-22T04:36:53;22.26;69.00
74416;SHT31;62850;42.428;25.618;2023-06-22T04:39:19;22.19;69.67
74416;SHT31;62850;42.428;25.618;2023-06-22T04:41:46;22.16;68.67
74416;SHT31;62850;42.428;25.618;2023-06-22T04:44:13;22.19;68.01
74416;SHT31;62850;42.428;25.618;2023-06-22T04:46:40;22.21;67.77
74416;SHT31;62850;42.428;25.618;2023-06-22T04:49:09;22.35;68.03
74416;SHT31;62850;42.428;25.618;2023-06-22T04:51:42;22.37;68.47
74416;SHT31;62850;42.428;25.618;2023-06-22T04:54:09;22.40;68.81
74416;SHT31;62850;42.428;25.618;2023-06-22T04:56:35;22.40;68.42
74416;SHT31;62850;42.428;25.618;2023-06-22T04:59:02;22.33;69.16
74416;SHT31;62850;42.428;25.618;2023-06-22T05:01:29;22.39;69.89
74416;SHT31;62850;42.428;25.618;2023-06-22T05:03:58;22.47;69.65
74416;SHT31;62850;42.428;25.618;2023-06-22T05:06:27;22.54;69.64
74416;SHT31;62850;42.428;25.618;2023-06-22T05:08:54;22.54;68.68
74416;SHT31;62850;42.428;25.618;2023-06-22T05:11:29;22.68;68.50
74416;SHT31;62850;42.428;25.618;2023-06-22T05:13:55;22.81;68.46
74416;SHT31;62850;42.428;25.618;2023-06-22T05:16:21;22.88;67.43
74416;SHT31;62850;42.428;25.618;2023-06-22T05:18:53;22.94;67.07
74416;SHT31;62850;42.428;25.618;2023-06-22T05:21:24;23.09;66.78
74416;SHT31;62850;42.428;25.618;2023-06-22T05:23:51;23.22;66.00
74416;SHT31;62850;42.428;25.618;2023-06-22T05:26:18;23.35;65.47
74416;SHT31;62850;42.428;25.618;2023-06-22T05:28:44;23.46;65.26
74416;SHT31;62850;42.428;25.618;2023-06-22T05:31:14;23.56;65.41
74416;SHT31;62850;42.428;25.618;2023-06-22T05:33:41;23.65;64.69
74416;SHT31;62850;42.428;25.618;2023-06-22T05:36:07;23.69;64.23
74416;SHT31;62850;42.428;25.618;2023-06-22T05:38:34;23.83;64.55
74416;SHT31;62850;42.428;25.618;2023-06-22T05:41:00;23.92;63.95
74416;SHT31;62850;42.428;25.618;2023-06-22T05:43:26;24.04;64.23
74416;SHT31;62850;42.428;25.618;2023-06-22T05:45:52;24.15;63.64
74416;SHT31;62850;42.428;25.618;2023-06-22T05:48:18;24.18;63.28
74416;SHT31;62850;42.428;25.618;2023-06-22T05:50:44;24.28;63.82
74416;SHT31;62850;42.428;25.618;2023-06-22T05:53:10;24.35;63.23
74416;SHT31;62850;42.428;25.618;2023-06-22T05:55:35;24.48;62.39
74416;SHT31;62850;42.428;25.618;2023-06-22T05:58:01;24.62;62.32
74416;SHT31;62850;42.428;25.618;2023-06-22T06:00:29;24.65;61.25
74416;SHT31;62850;42.428;25.618;2023-06-22T06:02:55;24.75;61.44
74416;SHT31;62850;42.428;25.618;2023-06-22T06:05:20;24.82;61.14
74416;SHT31;62850;42.428;25.618;2023-06-22T06:07:46;24.90;61.25
74416;SHT31;62850;42.428;25.618;2023-06-22T06:10:12;24.99;61.27
74416;SHT31;62850;42.428;25.618;2023-06-22T06:12:38;25.10;61.32
74416;SHT31;62850;42.428;25.618;2023-06-22T06:15:05;25.19;60.89
74416;SHT31;62850;42.428;25.618;2023-06-22T06:17:31;25.31;59.73
74416;SHT31;62850;42.428;25.618;2023-06-22T06:19:56;25.47;59.87
74416;SHT31;62850;42.428;25.618;2023-06-22T06:22:22;25.55;59.84
74416;SHT31;62850;42.428;25.618;2023-06-22T06:24:49;25.67;58.69
74416;SHT31;62850;42.428;25.618;2023-06-22T06:27:15;25.78;58.78
74416;SHT31;62850;42.428;25.618;2023-06-22T06:29:43;25.88;58.95
74416;SHT31;62850;42.428;25.618;2023-06-22T06:32:11;25.95;57.56
74416;SHT31;62850;42.428;25.618;2023-06-22T06:34:38;26.05;57.20
74416;SHT31;62850;42.428;25.618;2023-06-22T06:37:06;26.11;56.92
74416;SHT31;62850;42.428;25.618;2023-06-22T06:39:32;26.19;56.21
74416;SHT31;62850;42.428;25.618;2023-06-22T06:41:58;26.25;55.99
74416;SHT31;62850;42.428;25.618;2023-06-22T06:44:24;26.32;56.02
74416;SHT31;62850;42.428;25.618;2023-06-22T06:46:50;26.44;56.09
74416;SHT31;62850;42.428;25.618;2023-06-22T06:49:15;26.56;56.20
74416;SHT31;62850;42.428;25.618;2023-06-22T06:51:41;26.69;55.44
74416;SHT31;62850;42.428;25.618;2023-06-22T06:54:06;26.76;55.20
74416;SHT31;62850;42.428;25.618;2023-06-22T06:56:32;26.84;55.23
74416;SHT31;62850;42.428;25.618;2023-06-22T06:58:58;26.91;54.38
74416;SHT31;62850;42.428;25.618;2023-06-22T07:01:24;27.08;54.18
74416;SHT31;62850;42.428;25.618;2023-06-22T07:03:50;27.24;53.92
74416;SHT31;62850;42.428;25.618;2023-06-22T07:06:15;27.38;53.71
74416;SHT31;62850;42.428;25.618;2023-06-22T07:08:41;27.35;53.22
74416;SHT31;62850;42.428;25.618;2023-06-22T07:11:08;27.50;54.21
74416;SHT31;62850;42.428;25.618;2023-06-22T07:13:34;27.66;54.68
74416;SHT31;62850;42.428;25.618;2023-06-22T07:15:59;27.76;53.37
74416;SHT31;62850;42.428;25.618;2023-06-22T07:18:25;27.86;53.08
74416;SHT31;62850;42.428;25.618;2023-06-22T07:20:52;28.00;52.51
74416;SHT31;62850;42.428;25.618;2023-06-22T07:23:18;28.04;52.70
74416;SHT31;62850;42.428;25.618;2023-06-22T07:25:44;28.07;53.75
74416;SHT31;62850;42.428;25.618;2023-06-22T07:28:10;28.08;53.23
74416;SHT31;62850;42.428;25.618;2023-06-22T07:30:37;28.18;53.47
74416;SHT31;62850;42.428;25.618;2023-06-22T07:33:03;28.27;51.88
74416;SHT31;62850;42.428;25.618;2023-06-22T07:35:33;28.44;51.19
74416;SHT31;62850;42.428;25.618;2023-06-22T07:37:59;28.55;51.09
74416;SHT31;62850;42.428;25.618;2023-06-22T07:40:25;28.58;52.50
74416;SHT31;62850;42.428;25.618;2023-06-22T07:42:51;28.58;51.63
74416;SHT31;62850;42.428;25.618;2023-06-22T07:45:18;28.58;50.93
74416;SHT31;62850;42.428;25.618;2023-06-22T07:47:43;28.61;50.97
74416;SHT31;62850;42.428;25.618;2023-06-22T07:50:09;28.68;50.00
74416;SHT31;62850;42.428;25.618;2023-06-22T07:52:35;28.71;50.49
74416;SHT31;62850;42.428;25.618;2023-06-22T07:55:01;28.78;49.89
74416;SHT31;62850;42.428;25.618;2023-06-22T07:57:28;28.82;49.34
74416;SHT31;62850;42.428;25.618;2023-06-22T07:59:59;28.92;50.01
74416;SHT31;62850;42.428;25.618;2023-06-22T08:02:25;28.91;50.58
74416;SHT31;62850;42.428;25.618;2023-06-22T08:04:51;28.99;47.58
74416;SHT31;62850;42.428;25.618;2023-06-22T08:07:18;29.13;47.57
74416;SHT31;62850;42.428;25.618;2023-06-22T08:09:49;29.36;47.58
74416;SHT31;62850;42.428;25.618;2023-06-22T08:12:16;29.54;46.76
74416;SHT31;62850;42.428;25.618;2023-06-22T08:14:43;29.71;46.19
74416;SHT31;62850;42.428;25.618;2023-06-22T08:17:11;29.94;45.70
74416;SHT31;62850;42.428;25.618;2023-06-22T08:19:37;30.14;44.35
74416;SHT31;62850;42.428;25.618;2023-06-22T08:22:04;30.29;44.46
74416;SHT31;62850;42.428;25.618;2023-06-22T08:24:32;30.52;44.90
74416;SHT31;62850;42.428;25.618;2023-06-22T08:26:57;30.66;44.75
74416;SHT31;62850;42.428;25.618;2023-06-22T08:29:23;30.82;44.33
74416;SHT31;62850;42.428;25.618;2023-06-22T08:31:50;30.98;44.25
74416;SHT31;62850;42.428;25.618;2023-06-22T08:34:16;31.06;44.14
74416;SHT31;62850;42.428;25.618;2023-06-22T08:36:47;31.01;44.20
74416;SHT31;62850;42.428;25.618;2023-06-22T08:39:19;31.25;43.82
74416;SHT31;62850;42.428;25.618;2023-06-22T08:41:46;31.38;43.24
74416;SHT31;62850;42.428;25.618;2023-06-22T08:44:12;31.55;43.10
74416;SHT31;62850;42.428;25.618;2023-06-22T08:46:39;31.49;41.82
74416;SHT31;62850;42.428;25.618;2023-06-22T08:49:06;31.59;42.68
74416;SHT31;62850;42.428;25.618;2023-06-22T08:51:33;31.58;43.38
74416;SHT31;62850;42.428;25.618;2023-06-22T08:53:59;31.82;41.99
74416;SHT31;62850;42.428;25.618;2023-06-22T08:56:25;31.97;42.09
74416;SHT31;62850;42.428;25.618;2023-06-22T08:58:51;31.71;42.36
74416;SHT31;62850;42.428;25.618;2023-06-22T09:01:18;31.96;42.28
74416;SHT31;62850;42.428;25.618;2023-06-22T09:03:44;31.88;42.59
74416;SHT31;62850;42.428;25.618;2023-06-22T09:06:20;31.80;41.80
74416;SHT31;62850;42.428;25.618;2023-06-22T09:08:47;31.86;42.53
74416;SHT31;62850;42.428;25.618;2023-06-22T09:11:13;32.14;42.72
74416;SHT31;62850;42.428;25.618;2023-06-22T09:13:38;32.20;42.54
74416;SHT31;62850;42.428;25.618;2023-06-22T09:16:05;32.12;41.79
74416;SHT31;62850;42.428;25.618;2023-06-22T09:18:30;32.14;42.65
74416;SHT31;62850;42.428;25.618;2023-06-22T09:20:56;32.39;42.05
74416;SHT31;62850;42.428;25.618;2023-06-22T09:23:22;32.51;42.62
74416;SHT31;62850;42.428;25.618;2023-06-22T09:25:48;32.36;42.82
74416;SHT31;62850;42.428;25.618;2023-06-22T09:28:15;32.00;43.14
74416;SHT31;62850;42.428;25.618;2023-06-22T09:30:40;31.72;43.60
74416;SHT31;62850;42.428;25.618;2023-06-22T09:33:06;31.51;43.66
74416;SHT31;62850;42.428;25.618;2023-06-22T09:35:33;31.48;43.67
74416;SHT31;62850;42.428;25.618;2023-06-22T09:38:00;31.69;43.09
74416;SHT31;62850;42.428;25.618;2023-06-22T09:40:25;31.89;43.68
74416;SHT31;62850;42.428;25.618;2023-06-22T09:42:51;31.85;41.76
74416;SHT31;62850;42.428;25.618;2023-06-22T09:45:17;31.35;42.40
74416;SHT31;62850;42.428;25.618;2023-06-22T09:47:44;31.30;42.75
74416;SHT31;62850;42.428;25.618;2023-06-22T09:50:10;31.04;44.04
74416;SHT31;62850;42.428;25.618;2023-06-22T09:52:36;30.90;44.92
74416;SHT31;62850;42.428;25.618;2023-06-22T09:55:03;30.72;45.33
74416;SHT31;62850;42.428;25.618;2023-06-22T09:57:29;30.52;45.25
74416;SHT31;62850;42.428;25.618;2023-06-22T09:59:55;30.39;45.39
74416;SHT31;62850;42.428;25.618;2023-06-22T10:02:21;30.25;46.40
74416;SHT31;62850;42.428;25.618;2023-06-22T10:04:48;30.14;45.84
74416;SHT31;62850;42.428;25.618;2023-06-22T10:07:14;30.21;46.62
74416;SHT31;62850;42.428;25.618;2023-06-22T10:09:40;30.60;44.56
74416;SHT31;62850;42.428;25.618;2023-06-22T10:12:07;30.84;44.26
74416;SHT31;62850;42.428;25.618;2023-06-22T10:14:34;31.00;43.84
74416;SHT31;62850;42.428;25.618;2023-06-22T10:17:02;31.30;43.50
74416;SHT31;62850;42.428;25.618;2023-06-22T10:19:29;31.66;43.07
74416;SHT31;62850;42.428;25.618;2023-06-22T10:21:54;31.68;41.86
74416;SHT31;62850;42.428;25.618;2023-06-22T10:24:20;31.79;42.08
74416;SHT31;62850;42.428;25.618;2023-06-22T10:26:46;31.66;42.70
74416;SHT31;62850;42.428;25.618;2023-06-22T10:29:12;31.41;42.99
74416;SHT31;62850;42.428;25.618;2023-06-22T10:31:38;31.65;42.51
74416;SHT31;62850;42.428;25.618;2023-06-22T10:34:04;31.80;42.82
74416;SHT31;62850;42.428;25.618;2023-06-22T10:36:30;32.05;42.58
74416;SHT31;62850;42.428;25.618;2023-06-22T10:38:57;32.33;42.22
74416;SHT31;62850;42.428;25.618;2023-06-22T10:41:24;32.44;41.26
74416;SHT31;62850;42.428;25.618;2023-06-22T10:43:50;32.67;41.16
74416;SHT31;62850;42.428;25.618;2023-06-22T10:46:17;32.71;39.62
74416;SHT31;62850;42.428;25.618;2023-06-22T10:48:43;32.91;39.19
74416;SHT31;62850;42.428;25.618;2023-06-22T10:51:09;32.87;39.78
74416;SHT31;62850;42.428;25.618;2023-06-22T10:53:35;32.99;39.84
74416;SHT31;62850;42.428;25.618;2023-06-22T10:56:02;33.02;40.52
74416;SHT31;62850;42.428;25.618;2023-06-22T10:58:28;32.98;39.30
74416;SHT31;62850;42.428;25.618;2023-06-22T11:00:54;33.11;39.97
74416;SHT31;62850;42.428;25.618;2023-06-22T11:03:20;32.94;40.75
74416;SHT31;62850;42.428;25.618;2023-06-22T11:05:46;33.02;39.64
74416;SHT31;62850;42.428;25.618;2023-06-22T11:08:13;32.82;41.56
74416;SHT31;62850;42.428;25.618;2023-06-22T11:10:40;33.08;41.53
74416;SHT31;62850;42.428;25.618;2023-06-22T11:13:06;33.21;42.46
74416;SHT31;62850;42.428;25.618;2023-06-22T11:15:35;33.22;40.54
74416;SHT31;62850;42.428;25.618;2023-06-22T11:18:02;33.25;41.53
74416;SHT31;62850;42.428;25.618;2023-06-22T11:20:27;33.62;41.40
74416;SHT31;62850;42.428;25.618;2023-06-22T11:22:53;33.41;39.81
74416;SHT31;62850;42.428;25.618;2023-06-22T11:25:19;33.11;39.09
74416;SHT31;62850;42.428;25.618;2023-06-22T11:27:45;32.50;39.80
74416;SHT31;62850;42.428;25.618;2023-06-22T11:30:11;32.43;38.92
74416;SHT31;62850;42.428;25.618;2023-06-22T11:32:37;32.39;39.46
74416;SHT31;62850;42.428;25.618;2023-06-22T11:35:03;32.92;38.16
74416;SHT31;62850;42.428;25.618;2023-06-22T11:37:30;33.26;38.30
74416;SHT31;62850;42.428;25.618;2023-06-22T11:39:55;33.30;38.64
74416;SHT31;62850;42.428;25.618;2023-06-22T11:42:21;33.53;38.83
74416;SHT31;62850;42.428;25.618;2023-06-22T11:44:49;33.41;39.43
74416;SHT31;62850;42.428;25.618;2023-06-22T11:47:15;33.18;40.17
74416;SHT31;62850;42.428;25.618;2023-06-22T11:49:41;33.19;40.66
74416;SHT31;62850;42.428;25.618;2023-06-22T11:52:07;33.14;40.28
74416;SHT31;62850;42.428;25.618;2023-06-22T11:54:34;33.33;39.97
74416;SHT31;62850;42.428;25.618;2023-06-22T11:56:59;33.53;39.37
74416;SHT31;62850;42.428;25.618;2023-06-22T11:59:25;33.65;40.51
74416;SHT31;62850;42.428;25.618;2023-06-22T12:01:51;33.56;36.72
74416;SHT31;62850;42.428;25.618;2023-06-22T12:04:17;33.83;36.22
74416;SHT31;62850;42.428;25.618;2023-06-22T12:06:43;33.83;35.80
74416;SHT31;62850;42.428;25.618;2023-06-22T12:09:10;33.70;36.19
74416;SHT31;62850;42.428;25.618;2023-06-22T12:11:39;34.14;36.44
74416;SHT31;62850;42.428;25.618;2023-06-22T12:14:05;33.84;37.69
74416;SHT31;62850;42.428;25.618;2023-06-22T12:16:31;33.81;37.36
74416;SHT31;62850;42.428;25.618;2023-06-22T12:18:56;33.62;38.29
74416;SHT31;62850;42.428;25.618;2023-06-22T12:21:22;32.98;37.87
74416;SHT31;62850;42.428;25.618;2023-06-22T12:23:48;32.78;39.32
74416;SHT31;62850;42.428;25.618;2023-06-22T12:26:14;32.63;39.58
74416;SHT31;62850;42.428;25.618;2023-06-22T12:28:40;32.00;39.98
74416;SHT31;62850;42.428;25.618;2023-06-22T12:31:06;31.46;40.18
74416;SHT31;62850;42.428;25.618;2023-06-22T12:33:33;31.45;40.55
74416;SHT31;62850;42.428;25.618;2023-06-22T12:35:58;31.62;40.34
74416;SHT31;62850;42.428;25.618;2023-06-22T12:38:24;31.92;39.50
74416;SHT31;62850;42.428;25.618;2023-06-22T12:40:51;32.26;39.07
74416;SHT31;62850;42.428;25.618;2023-06-22T12:43:18;32.48;38.03
74416;SHT31;62850;42.428;25.618;2023-06-22T12:45:44;32.71;36.20
74416;SHT31;62850;42.428;25.618;2023-06-22T12:48:10;32.84;37.35
74416;SHT31;62850;42.428;25.618;2023-06-22T12:50:40;33.09;36.42
74416;SHT31;62850;42.428;25.618;2023-06-22T12:53:06;33.02;36.82
74416;SHT31;62850;42.428;25.618;2023-06-22T12:55:33;32.85;37.45
74416;SHT31;62850;42.428;25.618;2023-06-22T12:57:59;32.75;35.34
74416;SHT31;62850;42.428;25.618;2023-06-22T13:00:24;32.87;34.54
74416;SHT31;62850;42.428;25.618;2023-06-22T13:02:51;33.19;35.51
74416;SHT31;62850;42.428;25.618;2023-06-22T13:05:17;33.06;35.83
74416;SHT31;62850;42.428;25.618;2023-06-22T13:07:43;33.47;35.47
74416;SHT31;62850;42.428;25.618;2023-06-22T13:10:09;33.67;33.75
74416;SHT31;62850;42.428;25.618;2023-06-22T13:12:36;33.59;34.84
74416;SHT31;62850;42.428;25.618;2023-06-22T13:15:02;33.16;34.21
74416;SHT31;62850;42.428;25.618;2023-06-22T13:17:28;33.46;33.69
74416;SHT31;62850;42.428;25.618;2023-06-22T13:19:54;33.65;34.75
74416;SHT31;62850;42.428;25.618;2023-06-22T13:22:34;33.84;34.05
74416;SHT31;62850;42.428;25.618;2023-06-22T13:25:06;34.15;34.59
74416;SHT31;62850;42.428;25.618;2023-06-22T13:27:32;34.25;34.46
74416;SHT31;62850;42.428;25.618;2023-06-22T13:29:58;34.23;35.17
74416;SHT31;62850;42.428;25.618;2023-06-22T13:32:23;34.07;34.10
74416;SHT31;62850;42.428;25.618;2023-06-22T13:34:51;34.13;34.80
74416;SHT31;62850;42.428;25.618;2023-06-22T13:37:19;34.05;35.38
74416;SHT31;62850;42.428;25.618;2023-06-22T13:39:45;33.69;34.54
74416;SHT31;62850;42.428;25.618;2023-06-22T13:42:11;33.78;35.09
74416;SHT31;62850;42.428;25.618;2023-06-22T13:44:36;33.93;34.69
74416;SHT31;62850;42.428;25.618;2023-06-22T13:47:03;34.05;34.17
74416;SHT31;62850;42.428;25.618;2023-06-22T13:49:30;34.05;33.60
74416;SHT31;62850;42.428;25.618;2023-06-22T13:51:56;34.08;33.45
74416;SHT31;62850;42.428;25.618;2023-06-22T13:54:22;33.96;32.27
74416;SHT31;62850;42.428;25.618;2023-06-22T13:56:48;33.98;32.82
74416;SHT31;62850;42.428;25.618;2023-06-22T13:59:13;33.96;33.79
74416;SHT31;62850;42.428;25.618;2023-06-22T14:01:39;34.05;33.05
74416;SHT31;62850;42.428;25.618;2023-06-22T14:04:06;33.80;32.02
74416;SHT31;62850;42.428;25.618;2023-06-22T14:06:32;34.04;33.34
74416;SHT31;62850;42.428;25.618;2023-06-22T14:08:58;34.27;33.12
74416;SHT31;62850;42.428;25.618;2023-06-22T14:11:25;34.41;32.74
74416;SHT31;62850;42.428;25.618;2023-06-22T14:13:51;34.61;32.80
74416;SHT31;62850;42.428;25.618;2023-06-22T14:16:18;34.69;32.08
74416;SHT31;62850;42.428;25.618;2023-06-22T14:18:45;34.59;32.33
74416;SHT31;62850;42.428;25.618;2023-06-22T14:21:11;34.75;32.17
74416;SHT31;62850;42.428;25.618;2023-06-22T14:23:37;34.79;31.95
74416;SHT31;62850;42.428;25.618;2023-06-22T14:26:04;34.72;31.49
74416;SHT31;62850;42.428;25.618;2023-06-22T14:28:30;34.69;32.14
74416;SHT31;62850;42.428;25.618;2023-06-22T14:30:55;34.51;31.41
74416;SHT31;62850;42.428;25.618;2023-06-22T14:33:22;34.21;31.29
74416;SHT31;62850;42.428;25.618;2023-06-22T14:35:48;34.27;32.10
74416;SHT31;62850;42.428;25.618;2023-06-22T14:38:14;34.42;32.70
74416;SHT31;62850;42.428;25.618;2023-06-22T14:40:41;34.52;32.72
74416;SHT31;62850;42.428;25.618;2023-06-22T14:43:06;34.75;32.76
74416;SHT31;62850;42.428;25.618;2023-06-22T14:45:32;34.93;33.03
74416;SHT31;62850;42.428;25.618;2023-06-22T14:47:58;34.86;32.25
74416;SHT31;62850;42.428;25.618;2023-06-22T14:50:24;34.83;32.45
74416;SHT31;62850;42.428;25.618;2023-06-22T14:52:51;34.59;31.48
74416;SHT31;62850;42.428;25.618;2023-06-22T14:55:18;34.66;32.41
74416;SHT31;62850;42.428;25.618;2023-06-22T14:57:44;34.05;32.66
74416;SHT31;62850;42.428;25.618;2023-06-22T15:00:10;33.94;32.58
74416;SHT31;62850;42.428;25.618;2023-06-22T15:02:36;33.93;33.39
74416;SHT31;62850;42.428;25.618;2023-06-22T15:05:02;33.56;32.90
74416;SHT31;62850;42.428;25.618;2023-06-22T15:07:28;33.46;32.99
74416;SHT31;62850;42.428;25.618;2023-06-22T15:09:53;33.62;33.02
74416;SHT31;62850;42.428;25.618;2023-06-22T15:12:19;33.49;32.91
74416;SHT31;62850;42.428;25.618;2023-06-22T15:14:45;33.37;33.60
74416;SHT31;62850;42.428;25.618;2023-06-22T15:17:11;32.95;34.24